createdAt,value
2022-11-02T00:00:57.115Z,5.30
2022-11-02T00:03:24.164Z,5.57
2022-11-02T00:05:50.765Z,6.20
2022-11-02T00:08:17.263Z,5.97
2022-11-02T00:10:44.656Z,5.10
2022-11-02T00:13:11.195Z,4.88
2022-11-02T00:15:37.948Z,5.60
2022-11-02T00:18:10.055Z,5.72
2022-11-02T00:20:37.763Z,5.45
2022-11-02T00:23:07.635Z,6.15
2022-11-02T00:25:34.519Z,5.90
2022-11-02T00:28:01.054Z,6.30
2022-11-02T00:30:27.590Z,5.45
2022-11-02T00:32:54.159Z,5.22
2022-11-02T00:35:20.664Z,6.10
2022-11-02T00:37:47.223Z,5.60
2022-11-02T00:40:13.741Z,5.15
2022-11-02T00:42:40.209Z,6.07
2022-11-02T00:45:07.668Z,5.53
2022-11-02T00:47:34.459Z,5.63
2022-11-02T00:50:01.007Z,5.63
2022-11-02T00:52:27.564Z,5.75
2022-11-02T00:54:54.180Z,5.68
2022-11-02T00:57:20.641Z,5.63
2022-11-02T00:59:47.165Z,5.50
2022-11-02T01:02:13.848Z,5.20
2022-11-02T01:04:40.522Z,5.22
2022-11-02T01:07:07.118Z,5.35
2022-11-02T01:09:35.505Z,5.13
2022-11-02T01:12:01.973Z,2.45
2022-11-02T01:14:28.620Z,0.20
2022-11-02T01:16:58.014Z,0.20
2022-11-02T01:19:25.594Z,0.20
2022-11-02T01:21:52.108Z,1.67
2022-11-02T01:24:18.811Z,0.20
2022-11-02T01:26:45.499Z,0.20
2022-11-02T01:29:12.429Z,1.50
2022-11-02T01:31:41.936Z,2.30
2022-11-02T01:34:08.467Z,2.40
2022-11-02T01:36:35.011Z,2.47
2022-11-02T01:39:01.546Z,2.78
2022-11-02T01:41:28.279Z,3.25
2022-11-02T01:43:58.864Z,3.20
2022-11-02T01:46:31.460Z,3.13
2022-11-02T01:49:00.592Z,3.13
2022-11-02T01:51:31.672Z,3.72
2022-11-02T01:54:10.175Z,3.90
2022-11-02T01:56:38.519Z,1.30
2022-11-02T01:59:10.107Z,3.33
2022-11-02T02:01:37.625Z,1.85
2022-11-02T02:04:05.094Z,2.22
2022-11-02T02:06:31.972Z,2.65
2022-11-02T02:09:04.348Z,2.58
2022-11-02T02:11:36.753Z,3.00
2022-11-02T02:14:09.189Z,2.67
2022-11-02T02:17:03.550Z,3.70
2022-11-02T02:19:44.040Z,2.10
2022-11-02T02:22:46.006Z,4.18
2022-11-02T02:25:23.590Z,2.90
2022-11-02T02:28:27.390Z,2.92
2022-11-02T02:31:00.787Z,3.15
2022-11-02T02:33:30.181Z,3.17
2022-11-02T02:36:04.460Z,1.92
2022-11-02T02:38:35.021Z,3.40
2022-11-02T02:41:12.433Z,2.75
2022-11-02T02:43:42.875Z,2.97
2022-11-02T02:46:34.440Z,3.35
2022-11-02T02:49:01.575Z,2.85
2022-11-02T02:51:30.933Z,2.97
2022-11-02T02:54:01.206Z,3.10
2022-11-02T02:56:30.768Z,2.53
2022-11-02T02:59:01.083Z,2.75
2022-11-02T03:01:28.243Z,2.47
2022-11-02T03:03:54.955Z,2.75
2022-11-02T03:06:28.212Z,2.45
2022-11-02T03:09:07.344Z,1.67
2022-11-02T03:11:34.994Z,2.33
2022-11-02T03:14:38.170Z,2.53
2022-11-02T03:17:08.905Z,2.42
2022-11-02T03:19:55.371Z,2.72
2022-11-02T03:22:50.403Z,2.80
2022-11-02T03:25:21.623Z,2.15
2022-11-02T03:27:57.161Z,2.30
2022-11-02T03:30:25.036Z,2.90
2022-11-02T03:32:57.259Z,3.03
2022-11-02T03:35:33.090Z,2.50
2022-11-02T03:38:04.671Z,3.05
2022-11-02T03:40:34.623Z,2.90
2022-11-02T03:43:03.924Z,2.97
2022-11-02T03:45:36.330Z,2.95
2022-11-02T03:48:07.212Z,3.03
2022-11-02T03:50:35.307Z,3.08
2022-11-02T03:53:11.125Z,2.80
2022-11-02T03:55:41.312Z,2.58
2022-11-02T03:58:12.232Z,1.77
2022-11-02T04:00:47.375Z,2.30
2022-11-02T04:03:14.011Z,1.90
2022-11-02T04:05:40.495Z,2.30
2022-11-02T04:08:26.009Z,1.80
2022-11-02T04:11:11.713Z,1.58
2022-11-02T04:13:57.377Z,2.00
2022-11-02T04:16:26.764Z,1.30
2022-11-02T04:19:13.118Z,0.20
2022-11-02T04:21:39.619Z,0.20
2022-11-02T04:24:25.192Z,0.52
2022-11-02T04:26:51.757Z,0.93
2022-11-02T04:29:18.271Z,2.83
2022-11-02T04:31:44.803Z,1.17
2022-11-02T04:34:11.313Z,2.05
2022-11-02T04:36:37.789Z,6.63
2022-11-02T04:39:05.242Z,2.75
2022-11-02T04:41:43.866Z,3.88
2022-11-02T04:44:12.773Z,4.10
2022-11-02T04:46:40.064Z,2.63
2022-11-02T04:49:07.215Z,2.50
2022-11-02T04:51:35.851Z,4.15
2022-11-02T04:54:03.186Z,2.65
2022-11-02T04:56:30.441Z,1.10
2022-11-02T04:58:58.817Z,0.22
2022-11-02T05:01:28.268Z,0.20
2022-11-02T05:03:55.407Z,0.20
2022-11-02T05:06:22.756Z,3.97
2022-11-02T05:08:49.281Z,2.50
2022-11-02T05:11:15.917Z,0.40
2022-11-02T05:13:42.569Z,0.20
2022-11-02T05:16:12.518Z,0.20
2022-11-02T05:18:38.981Z,0.20
2022-11-02T05:21:07.257Z,0.30
2022-11-02T05:23:33.765Z,1.30
2022-11-02T05:26:05.804Z,2.38
2022-11-02T05:28:32.605Z,0.38
2022-11-02T05:31:02.726Z,1.00
2022-11-02T05:33:31.017Z,0.90
2022-11-02T05:35:58.766Z,1.58
2022-11-02T05:38:25.493Z,1.27
2022-11-02T05:40:56.817Z,1.50
2022-11-02T05:43:24.228Z,1.30
2022-11-02T05:45:58.850Z,2.67
2022-11-02T05:48:26.317Z,2.10
2022-11-02T05:51:00.308Z,2.22
2022-11-02T05:53:28.273Z,2.25
2022-11-02T05:55:59.008Z,2.55
2022-11-02T05:58:25.907Z,2.90
2022-11-02T06:00:52.451Z,2.55
2022-11-02T06:03:19.293Z,2.00
2022-11-02T06:05:46.138Z,1.80
2022-11-02T06:08:12.706Z,1.75
2022-11-02T06:10:42.614Z,1.75
2022-11-02T06:13:10.089Z,2.20
2022-11-02T06:15:36.613Z,1.90
2022-11-02T06:18:03.215Z,1.50
2022-11-02T06:20:30.136Z,1.38
2022-11-02T06:22:57.473Z,2.15
2022-11-02T06:25:23.907Z,2.38
2022-11-02T06:27:53.163Z,2.40
2022-11-02T06:30:20.457Z,2.17
2022-11-02T06:32:51.187Z,2.72
2022-11-02T06:35:18.830Z,1.40
2022-11-02T06:37:46.142Z,1.80
2022-11-02T06:40:13.456Z,1.52
2022-11-02T06:42:45.326Z,1.75
2022-11-02T06:45:17.160Z,2.55
2022-11-02T06:47:43.701Z,2.25
2022-11-02T06:50:10.330Z,2.28
2022-11-02T06:52:45.275Z,2.00
2022-11-02T06:55:12.829Z,1.58
2022-11-02T06:57:39.969Z,2.03
2022-11-02T07:03:06.941Z,1.23
2022-11-02T07:05:34.097Z,1.65
2022-11-02T07:08:00.667Z,2.15
2022-11-02T07:10:28.139Z,1.83
2022-11-02T07:12:56.634Z,1.80
2022-11-02T07:15:24.591Z,1.50
2022-11-02T07:17:51.858Z,1.20
2022-11-02T07:20:18.659Z,1.88
2022-11-02T07:22:55.843Z,1.85
2022-11-02T07:25:23.231Z,1.98
2022-11-02T07:27:49.725Z,2.15
2022-11-02T07:30:16.585Z,2.10
2022-11-02T07:32:44.332Z,2.25
2022-11-02T07:35:12.494Z,2.38
2022-11-02T07:37:39.260Z,1.83
2022-11-02T07:40:08.433Z,2.00
2022-11-02T07:42:35.559Z,1.60
2022-11-02T07:45:03.572Z,2.42
2022-11-02T07:47:31.541Z,1.58
2022-11-02T07:49:59.688Z,1.63
2022-11-02T07:52:26.154Z,1.65
2022-11-02T07:54:52.756Z,1.25
2022-11-02T07:57:19.839Z,1.42
2022-11-02T07:59:46.307Z,0.13
2022-11-02T08:02:13.821Z,0.20
2022-11-02T08:04:44.985Z,0.20
2022-11-02T08:07:12.702Z,0.20
2022-11-02T08:09:39.408Z,0.20
2022-11-02T08:12:06.255Z,0.20
2022-11-02T08:14:32.910Z,0.50
2022-11-02T08:16:59.461Z,0.88
2022-11-02T08:19:26.023Z,1.05
2022-11-02T08:21:53.124Z,2.05
2022-11-02T08:24:21.236Z,1.70
2022-11-02T08:26:49.650Z,2.25
2022-11-02T08:29:20.394Z,1.33
2022-11-02T08:31:48.637Z,1.85
2022-11-02T08:34:15.102Z,1.45
2022-11-02T08:36:41.675Z,1.23
2022-11-02T08:39:08.210Z,2.10
2022-11-02T08:41:34.705Z,1.50
2022-11-02T08:44:01.180Z,1.50
2022-11-02T08:46:27.727Z,1.45
2022-11-02T08:48:54.375Z,1.90
2022-11-02T08:51:21.226Z,1.25
2022-11-02T08:53:51.639Z,0.60
2022-11-02T08:56:18.576Z,1.50
2022-11-02T08:58:45.171Z,1.50
2022-11-02T09:01:11.698Z,1.48
2022-11-02T09:03:38.284Z,1.95
2022-11-02T09:06:04.945Z,1.83
2022-11-02T09:08:31.804Z,2.22
2022-11-02T09:11:00.750Z,1.40
2022-11-02T09:13:27.974Z,1.77
2022-11-02T09:15:57.742Z,1.65
2022-11-02T09:18:24.551Z,1.10
2022-11-02T09:20:51.651Z,2.03
2022-11-02T09:23:19.604Z,1.70
2022-11-02T09:25:46.415Z,1.88
2022-11-02T09:28:14.082Z,1.33
2022-11-02T09:30:40.754Z,1.63
2022-11-02T09:33:07.783Z,2.38
2022-11-02T09:38:02.645Z,2.03
2022-11-02T09:40:58.562Z,2.33
2022-11-02T09:43:51.463Z,1.40
2022-11-02T09:46:30.182Z,1.92
2022-11-02T09:49:16.440Z,2.08
2022-11-02T09:52:01.570Z,1.85
2022-11-02T09:54:33.772Z,0.20
2022-11-02T09:57:14.342Z,0.20
2022-11-02T09:59:42.310Z,0.20
2022-11-02T10:02:22.783Z,0.40
2022-11-02T10:04:59.691Z,0.20
2022-11-02T10:07:54.857Z,0.20
2022-11-02T10:10:48.160Z,0.20
2022-11-02T10:13:32.726Z,0.63
2022-11-02T10:16:11.803Z,0.85
2022-11-02T10:18:40.236Z,6.65
2022-11-02T10:21:09.738Z,2.08
2022-11-02T10:23:50.879Z,0.20
2022-11-02T10:26:27.245Z,0.55
2022-11-02T10:28:58.994Z,1.17
2022-11-02T10:31:33.691Z,0.80
2022-11-02T10:34:11.730Z,0.98
2022-11-02T10:37:07.329Z,1.08
2022-11-02T10:39:52.307Z,1.48
2022-11-02T10:42:37.376Z,1.35
2022-11-02T10:45:13.647Z,1.23
2022-11-02T10:47:47.867Z,1.38
2022-11-02T10:50:30.626Z,1.92
2022-11-02T10:53:20.387Z,1.02
2022-11-02T10:56:01.806Z,1.10
2022-11-02T10:58:31.448Z,1.20
2022-11-02T11:01:13.909Z,1.27
2022-11-02T11:03:53.906Z,1.80
2022-11-02T11:06:20.751Z,3.00
2022-11-02T11:08:50.054Z,1.40
2022-11-02T11:11:25.519Z,2.28
2022-11-02T11:20:07.282Z,2.50
2022-11-02T11:22:39.819Z,4.32
2022-11-02T11:25:12.482Z,3.17
2022-11-02T11:27:49.867Z,2.25
2022-11-02T11:30:58.953Z,4.00
2022-11-02T11:33:23.717Z,2.65
2022-11-02T11:35:51.195Z,1.83
2022-11-02T11:38:20.501Z,1.80
2022-11-02T11:40:54.390Z,1.50
2022-11-02T11:43:26.334Z,1.85
2022-11-02T11:46:04.860Z,2.53
2022-11-02T11:48:40.588Z,1.95
2022-11-02T11:51:29.249Z,1.92
2022-11-02T11:54:14.435Z,2.00
2022-11-02T11:56:42.738Z,2.33
2022-11-02T11:59:44.561Z,1.83
2022-11-02T12:02:29.132Z,2.05
2022-11-02T12:05:16.454Z,1.70
2022-11-02T12:08:19.865Z,1.85
2022-11-02T12:11:15.011Z,1.98
2022-11-02T12:13:54.705Z,2.05
2022-11-02T12:17:03.244Z,2.45
2022-11-02T12:19:55.906Z,1.55
2022-11-02T12:22:44.755Z,2.20
2022-11-02T12:25:35.459Z,2.05
2022-11-02T12:28:07.720Z,1.83
2022-11-02T12:30:43.928Z,2.10
2022-11-02T12:33:39.081Z,1.58
2022-11-02T12:36:25.505Z,1.70
2022-11-02T12:38:53.655Z,1.17
2022-11-02T12:41:58.342Z,0.98
2022-11-02T12:44:43.345Z,1.17
2022-11-02T12:50:21.542Z,1.30
2022-11-02T12:53:03.841Z,1.02
2022-11-02T12:55:38.840Z,1.10
2022-11-02T12:58:09.570Z,1.42
2022-11-02T13:00:39.367Z,1.10
2022-11-02T13:03:14.897Z,1.20
2022-11-02T13:05:44.750Z,1.20
2022-11-02T13:08:18.139Z,1.63
2022-11-02T13:10:53.151Z,1.52
2022-11-02T13:13:39.920Z,1.30
2022-11-02T13:16:08.821Z,1.13
2022-11-02T13:18:48.045Z,1.15
2022-11-02T13:21:16.938Z,2.13
2022-11-02T13:23:47.393Z,1.77
2022-11-02T13:26:22.906Z,0.98
2022-11-02T13:28:52.961Z,1.25
2022-11-02T13:31:34.276Z,1.20
2022-11-02T13:34:03.274Z,1.38
2022-11-02T13:36:29.874Z,1.35
2022-11-02T13:39:06.090Z,1.65
2022-11-02T13:41:38.562Z,0.90
2022-11-02T13:44:42.371Z,1.08
2022-11-02T13:47:37.785Z,0.90
2022-11-02T13:50:05.868Z,1.55
2022-11-02T13:52:41.174Z,0.80
2022-11-02T13:55:10.960Z,1.33
2022-11-02T13:57:41.026Z,1.38
2022-11-02T14:00:25.200Z,1.50
2022-11-02T14:03:07.401Z,1.33
2022-11-02T14:05:36.060Z,0.95
2022-11-02T14:08:10.895Z,1.70
2022-11-02T14:10:39.987Z,1.73
2022-11-02T14:13:13.541Z,1.50
2022-11-02T14:15:43.399Z,1.30
2022-11-02T14:18:09.890Z,1.55
2022-11-02T14:20:39.027Z,1.13
2022-11-02T14:23:11.936Z,1.05
2022-11-02T14:26:00.662Z,1.23
2022-11-02T14:28:31.978Z,1.42
2022-11-02T14:31:04.443Z,1.73
2022-11-02T14:33:33.068Z,1.10
2022-11-02T14:36:17.663Z,1.10
2022-11-02T14:38:59.866Z,1.45
2022-11-02T14:41:26.423Z,0.82
2022-11-02T14:44:21.085Z,0.95
2022-11-02T14:46:56.718Z,1.00
2022-11-02T14:49:27.147Z,0.88
2022-11-02T14:52:05.669Z,0.88
2022-11-02T14:54:40.690Z,1.17
2022-11-02T14:57:40.592Z,1.05
2022-11-02T15:00:38.483Z,1.00
2022-11-02T15:03:08.436Z,1.00
2022-11-02T15:05:39.022Z,1.15
2022-11-02T15:08:21.599Z,1.00
2022-11-02T15:10:48.342Z,1.02
2022-11-02T15:13:20.886Z,0.85
2022-11-02T15:15:56.101Z,1.40
2022-11-02T15:18:33.102Z,0.85
2022-11-02T15:21:12.505Z,1.00
2022-11-02T15:23:50.834Z,1.05
2022-11-02T15:26:42.482Z,1.33
2022-11-02T15:29:41.824Z,1.30
2022-11-02T15:32:22.108Z,1.10
2022-11-02T15:34:51.341Z,0.90
2022-11-02T15:37:21.426Z,1.15
2022-11-02T15:39:53.268Z,1.30
2022-11-02T15:42:26.731Z,1.48
2022-11-02T15:45:14.200Z,1.00
2022-11-02T15:47:56.084Z,1.30
2022-11-02T15:50:40.769Z,1.10
2022-11-02T15:53:23.427Z,1.15
2022-11-02T15:56:01.481Z,1.20
2022-11-02T15:58:50.957Z,0.93
2022-11-02T16:01:21.271Z,1.38
2022-11-02T16:03:55.564Z,1.30
2022-11-02T16:06:26.538Z,1.05
2022-11-02T16:08:53.170Z,1.27
2022-11-02T16:11:20.225Z,0.90
2022-11-02T16:14:07.573Z,1.63
2022-11-02T16:16:46.458Z,1.85
2022-11-02T16:19:20.430Z,1.30
2022-11-02T16:21:48.135Z,1.10
2022-11-02T16:24:14.963Z,1.13
2022-11-02T16:26:42.588Z,1.33
2022-11-02T16:29:11.031Z,1.92
2022-11-02T16:31:38.173Z,1.70
2022-11-02T16:34:19.884Z,1.90
2022-11-02T16:36:46.764Z,1.73
2022-11-02T16:39:13.450Z,2.03
2022-11-02T16:41:41.114Z,1.20
2022-11-02T16:44:15.334Z,1.42
2022-11-02T16:46:47.710Z,1.55
2022-11-02T16:49:18.671Z,1.30
2022-11-02T16:51:53.972Z,1.23
2022-11-02T16:54:27.687Z,1.15
2022-11-02T16:56:56.469Z,1.98
2022-11-02T16:59:24.032Z,1.20
2022-11-02T17:01:50.989Z,1.60
2022-11-02T17:04:22.035Z,1.80
2022-11-02T17:06:51.544Z,1.60
2022-11-02T17:09:29.425Z,1.60
2022-11-02T17:12:13.731Z,1.33
2022-11-02T17:14:48.188Z,1.73
2022-11-02T17:17:24.179Z,2.08
2022-11-02T17:19:56.167Z,1.20
2022-11-02T17:22:25.728Z,2.40
2022-11-02T17:25:07.310Z,1.70
2022-11-02T17:27:39.111Z,1.55
2022-11-02T17:30:35.231Z,1.63
2022-11-02T17:33:21.009Z,1.42
2022-11-02T17:35:49.360Z,1.70
2022-11-02T17:38:16.878Z,2.22
2022-11-02T17:40:43.555Z,2.50
2022-11-02T17:43:11.230Z,2.15
2022-11-02T17:45:39.011Z,2.10
2022-11-02T17:48:08.245Z,1.30
2022-11-02T17:50:37.189Z,1.98
2022-11-02T17:53:05.196Z,1.75
2022-11-02T17:55:33.840Z,1.33
2022-11-02T17:58:01.475Z,1.50
2022-11-02T18:00:28.651Z,1.67
2022-11-02T18:02:59.189Z,1.33
2022-11-02T18:05:27.663Z,1.42
2022-11-02T18:07:55.524Z,1.55
2022-11-02T18:10:24.428Z,1.55
2022-11-02T18:12:52.272Z,1.55
2022-11-02T18:15:23.933Z,1.55
2022-11-02T18:17:50.688Z,1.98
2022-11-02T18:20:18.237Z,2.63
2022-11-02T18:22:45.284Z,1.80
2022-11-02T18:25:14.611Z,1.65
2022-11-02T18:27:42.239Z,1.52
2022-11-02T18:30:11.742Z,1.77
2022-11-02T18:32:39.517Z,1.52
2022-11-02T18:35:08.348Z,1.42
2022-11-02T18:37:36.365Z,1.50
2022-11-02T18:40:03.307Z,1.77
2022-11-02T18:42:29.953Z,1.88
2022-11-02T18:44:58.233Z,1.55
2022-11-02T18:47:25.371Z,1.20
2022-11-02T18:49:52.333Z,1.60
2022-11-02T18:52:22.167Z,1.90
2022-11-02T18:54:49.683Z,1.30
2022-11-02T18:57:16.329Z,1.45
2022-11-02T18:59:42.963Z,1.40
2022-11-02T19:02:10.887Z,2.63
2022-11-02T19:04:38.294Z,3.72
2022-11-02T19:07:23.354Z,2.10
2022-11-02T19:09:52.813Z,2.55
2022-11-02T19:12:24.458Z,1.95
2022-11-02T19:14:54.543Z,1.65
2022-11-02T19:17:25.892Z,2.05
2022-11-02T19:19:52.735Z,2.10
2022-11-02T19:22:21.748Z,1.88
2022-11-02T19:24:48.588Z,2.20
2022-11-02T19:27:23.406Z,2.92
2022-11-02T19:29:50.761Z,1.95
2022-11-02T19:32:19.185Z,2.10
2022-11-02T19:34:46.892Z,2.13
2022-11-02T19:37:13.947Z,2.03
2022-11-02T19:39:40.887Z,2.72
2022-11-02T19:42:07.774Z,1.45
2022-11-02T19:44:41.178Z,2.17
2022-11-02T19:47:09.511Z,2.30
2022-11-02T19:49:36.143Z,2.05
2022-11-02T19:52:02.880Z,2.40
2022-11-02T19:54:30.366Z,2.60
2022-11-02T19:56:56.993Z,3.08
2022-11-02T19:59:23.636Z,2.50
2022-11-02T20:01:51.150Z,2.50
2022-11-02T20:04:18.033Z,2.58
2022-11-02T20:06:45.100Z,2.72
2022-11-02T20:09:18.409Z,2.95
2022-11-02T20:11:46.543Z,1.90
2022-11-02T20:14:14.692Z,2.40
2022-11-02T20:16:41.350Z,2.72
2022-11-02T20:19:09.256Z,2.75
2022-11-02T20:21:41.501Z,2.08
2022-11-02T20:24:10.488Z,2.53
2022-11-02T20:26:38.859Z,2.80
2022-11-02T20:29:06.878Z,2.60
2022-11-02T20:31:35.843Z,2.40
2022-11-02T20:34:03.300Z,1.80
2022-11-02T20:36:30.472Z,2.50
2022-11-02T20:38:57.294Z,1.88
2022-11-02T20:41:26.979Z,2.28
2022-11-02T20:43:55.791Z,2.50
2022-11-02T20:46:37.558Z,2.97
2022-11-02T20:49:21.209Z,2.33
2022-11-02T20:51:51.207Z,2.67
2022-11-02T20:54:19.987Z,2.65
2022-11-02T20:56:47.392Z,2.67
2022-11-02T20:59:15.244Z,2.42
2022-11-02T21:01:42.148Z,2.30
2022-11-02T21:04:09.029Z,3.10
2022-11-02T21:06:36.595Z,2.53
2022-11-02T21:09:09.110Z,3.08
2022-11-02T21:11:57.419Z,3.25
2022-11-02T21:14:24.151Z,2.85
2022-11-02T21:16:50.835Z,3.03
2022-11-02T21:19:17.737Z,2.97
2022-11-02T21:21:45.148Z,2.83
2022-11-02T21:24:12.041Z,2.58
2022-11-02T21:26:38.800Z,2.88
2022-11-02T21:29:05.425Z,3.45
2022-11-02T21:31:32.057Z,3.97
2022-11-02T21:33:58.852Z,4.00
2022-11-02T21:36:25.459Z,4.05
2022-11-02T21:38:52.090Z,4.18
2022-11-02T21:41:20.750Z,3.80
2022-11-02T21:43:47.579Z,3.60
2022-11-02T21:46:14.227Z,4.20
2022-11-02T21:48:41.341Z,3.63
2022-11-02T21:51:10.999Z,4.30
2022-11-02T21:53:40.551Z,4.35
2022-11-02T21:56:09.473Z,3.70
2022-11-02T21:58:39.019Z,4.10
2022-11-02T22:01:31.447Z,4.20
2022-11-02T22:03:58.764Z,4.28
2022-11-02T22:06:30.762Z,4.45
2022-11-02T22:08:59.480Z,4.03
2022-11-02T22:11:29.275Z,4.07
2022-11-02T22:13:58.110Z,4.25
2022-11-02T22:16:28.258Z,3.97
2022-11-02T22:18:56.698Z,1.00
2022-11-02T22:21:24.741Z,3.83
2022-11-02T22:23:51.998Z,3.90
2022-11-02T22:26:22.020Z,3.67
2022-11-02T22:28:49.287Z,3.80
2022-11-02T22:31:18.560Z,6.97
2022-11-02T22:33:46.621Z,4.50
2022-11-02T22:36:15.021Z,3.55
2022-11-02T22:38:54.448Z,3.67
2022-11-02T22:41:23.274Z,4.00
2022-11-02T22:43:52.439Z,3.88
2022-11-02T22:46:19.559Z,3.65
2022-11-02T22:48:46.537Z,3.80
2022-11-02T22:51:14.247Z,3.58
2022-11-02T22:53:41.007Z,3.58
2022-11-02T22:56:09.028Z,4.07
2022-11-02T22:58:36.811Z,3.47
2022-11-02T23:01:05.600Z,3.60
2022-11-02T23:03:33.497Z,3.92
2022-11-02T23:06:00.913Z,3.55
2022-11-02T23:08:28.292Z,2.88
2022-11-02T23:11:17.222Z,3.63
2022-11-02T23:13:47.627Z,3.03
2022-11-02T23:16:24.133Z,3.35
2022-11-02T23:19:25.307Z,3.03
2022-11-02T23:22:21.186Z,3.83
2022-11-02T23:25:08.695Z,3.33
2022-11-02T23:28:25.792Z,3.67
2022-11-02T23:31:15.874Z,3.50
2022-11-02T23:33:42.415Z,2.97
2022-11-02T23:36:13.161Z,3.35
2022-11-02T23:38:59.237Z,4.10
2022-11-02T23:41:26.516Z,4.00
2022-11-02T23:44:11.851Z,3.60
2022-11-02T23:46:43.018Z,3.78
2022-11-02T23:49:10.111Z,3.65
2022-11-02T23:51:55.656Z,4.75
2022-11-02T23:54:40.825Z,4.00
2022-11-02T23:57:07.569Z,3.75
2022-11-02T23:59:34.122Z,3.63
